Time;durP1;ratioP1;P1;durP2;ratioP2;P2;SDS_P1;SDS_P2;PMS_P1;PMS_P2;Temp;Humidity;BMP_temperature;BMP_pressure;BME280_temperature;BME280_humidity;BME280_pressure;Samples;Min_cycle;Max_cycle;Signal;HPM_P1;HPM_P2
2024/04/18 00:01:39;;;;;;;4.40;1.67;;;14.40;99.90;;;;;;5415567;26;20000;-63
2024/04/18 00:04:04;;;;;;;1.70;1.38;;;14.30;99.90;;;;;;5414024;26;20315;-63
2024/04/18 00:06:32;;;;;;;4.07;1.90;;;14.30;99.90;;;;;;5416967;26;20008;-63
2024/04/18 00:08:57;;;;;;;3.85;1.60;;;14.30;99.90;;;;;;5415025;26;20007;-63
2024/04/18 00:11:23;;;;;;;3.83;1.80;;;14.30;99.90;;;;;;5415117;26;20364;-63
2024/04/18 00:13:48;;;;;;;6.18;2.05;;;14.30;99.90;;;;;;5413859;26;20027;-63
2024/04/18 00:16:14;;;;;;;2.25;1.67;;;14.20;99.90;;;;;;5412984;26;20327;-63
2024/04/18 00:18:39;;;;;;;2.45;1.98;;;14.20;99.90;;;;;;5410590;26;19996;-63
2024/04/18 00:21:05;;;;;;;5.20;2.28;;;14.20;99.90;;;;;;5401621;26;20080;-63
2024/04/18 00:23:30;;;;;;;3.10;1.95;;;14.20;99.90;;;;;;5406810;26;20027;-63
2024/04/18 00:25:56;;;;;;;6.47;1.88;;;14.20;99.90;;;;;;5402594;26;19995;-63
2024/04/18 00:28:22;;;;;;;4.85;2.50;;;14.20;99.90;;;;;;5407884;26;20394;-63
2024/04/18 00:30:47;;;;;;;6.25;2.20;;;14.10;99.90;;;;;;5413084;26;20011;-63
2024/04/18 00:33:13;;;;;;;5.20;1.98;;;14.10;99.90;;;;;;5413453;26;20477;-63
2024/04/18 00:35:39;;;;;;;3.50;1.92;;;14.10;99.90;;;;;;5396212;26;20036;-63
2024/04/18 00:38:05;;;;;;;4.97;2.60;;;14.10;99.90;;;;;;5415175;26;20341;-63
2024/04/18 00:40:30;;;;;;;5.20;2.63;;;14.00;99.90;;;;;;5416602;26;20001;-63
2024/04/18 00:42:56;;;;;;;5.97;2.45;;;14.10;99.90;;;;;;5415395;26;20077;-63
2024/04/18 00:45:22;;;;;;;3.78;2.53;;;14.10;99.90;;;;;;5416934;26;20144;-63
2024/04/18 00:47:48;;;;;;;6.07;3.03;;;14.10;99.90;;;;;;5411233;26;19995;-63
2024/04/18 00:50:16;;;;;;;4.90;2.42;;;14.00;99.90;;;;;;5416798;26;20322;-63
2024/04/18 00:52:42;;;;;;;4.65;2.38;;;14.10;99.90;;;;;;5403213;26;20003;-63
2024/04/18 00:55:09;;;;;;;4.15;2.80;;;14.00;99.90;;;;;;5415055;26;20075;-63
2024/04/18 00:57:36;;;;;;;3.22;2.70;;;14.10;99.90;;;;;;5415182;26;20503;-63
2024/04/18 01:00:02;;;;;;;5.43;2.83;;;13.90;99.90;;;;;;5416384;26;20030;-63
2024/04/18 01:02:30;;;;;;;3.55;2.35;;;13.90;99.90;;;;;;5415137;26;20000;-63
2024/04/18 01:04:56;;;;;;;5.13;2.50;;;13.80;99.90;;;;;;5408348;26;20000;-63
2024/04/18 01:07:24;;;;;;;4.25;2.10;;;13.70;99.90;;;;;;5402352;26;19996;-63
2024/04/18 01:09:50;;;;;;;3.83;2.45;;;13.80;99.90;;;;;;5398921;26;19999;-63
2024/04/18 01:12:16;;;;;;;4.55;2.30;;;13.90;99.90;;;;;;5404276;26;20040;-63
2024/04/18 01:14:41;;;;;;;6.03;2.15;;;13.80;99.90;;;;;;5394428;26;20008;-63
2024/04/18 01:17:07;;;;;;;2.83;2.10;;;13.90;99.90;;;;;;5409828;26;20004;-63
2024/04/18 01:19:33;;;;;;;2.58;1.70;;;13.90;99.90;;;;;;5405660;26;20000;-63
2024/04/18 01:22:00;;;;;;;3.90;1.88;;;13.80;99.90;;;;;;5415301;26;20018;-63
2024/04/18 01:24:26;;;;;;;5.13;1.85;;;13.80;99.90;;;;;;5411189;26;20445;-63
2024/04/18 01:26:51;;;;;;;2.42;1.63;;;13.70;99.90;;;;;;5412457;26;19995;-63
2024/04/18 01:29:17;;;;;;;4.13;1.55;;;13.70;99.90;;;;;;5411577;26;20000;-63
2024/04/18 01:31:43;;;;;;;6.40;2.00;;;13.70;99.90;;;;;;5415199;26;20015;-63
2024/04/18 01:34:08;;;;;;;5.90;1.88;;;13.80;99.90;;;;;;5415142;26;20000;-63
2024/04/18 01:36:34;;;;;;;2.10;1.67;;;13.80;99.90;;;;;;5412114;26;20051;-63
2024/04/18 01:39:00;;;;;;;2.50;1.45;;;13.70;99.90;;;;;;5403027;26;20113;-63
2024/04/18 01:41:25;;;;;;;2.05;1.40;;;13.80;99.90;;;;;;5415713;26;20429;-63
2024/04/18 01:43:51;;;;;;;4.20;1.45;;;13.70;99.90;;;;;;5412483;26;20015;-63
2024/04/18 01:46:17;;;;;;;4.15;1.50;;;13.70;99.90;;;;;;5416065;26;19999;-63
2024/04/18 01:48:46;;;;;;;3.65;1.83;;;13.70;99.90;;;;;;5412002;26;20007;-63
2024/04/18 01:51:12;;;;;;;2.05;1.85;;;13.80;99.90;;;;;;5414483;26;20004;-63
2024/04/18 01:53:37;;;;;;;2.78;1.70;;;13.70;99.90;;;;;;5406988;26;20014;-63
2024/04/18 01:56:03;;;;;;;4.25;1.75;;;13.70;99.90;;;;;;5394727;26;19999;-63
2024/04/18 01:58:29;;;;;;;3.42;1.75;;;13.70;99.90;;;;;;5414414;26;20348;-63
2024/04/18 02:00:54;;;;;;;4.50;2.15;;;13.80;99.90;;;;;;5390999;26;20007;-63
2024/04/18 02:03:20;;;;;;;2.38;1.60;;;13.80;99.90;;;;;;5412153;26;19996;-63
2024/04/18 02:05:46;;;;;;;5.05;1.90;;;13.70;99.90;;;;;;5413014;26;20002;-63
2024/04/18 02:08:12;;;;;;;3.40;1.70;;;13.70;99.90;;;;;;5411781;26;19999;-63
2024/04/18 02:10:37;;;;;;;8.05;2.35;;;13.60;99.90;;;;;;5415572;26;19995;-63
2024/04/18 02:13:03;;;;;;;4.07;1.80;;;13.60;99.90;;;;;;5414383;26;20003;-63
2024/04/18 02:15:29;;;;;;;4.63;1.70;;;13.70;99.90;;;;;;5415684;26;20051;-63
2024/04/18 02:17:55;;;;;;;3.75;1.70;;;13.70;99.90;;;;;;5400283;26;20049;-63
2024/04/18 02:20:20;;;;;;;5.03;1.40;;;13.70;99.90;;;;;;5415630;26;20007;-63
2024/04/18 02:22:46;;;;;;;2.35;1.77;;;13.70;99.90;;;;;;5412576;26;20020;-63
2024/04/18 02:25:12;;;;;;;6.65;1.80;;;13.70;99.90;;;;;;5414705;26;20506;-63
2024/04/18 02:27:41;;;;;;;2.95;1.50;;;13.70;99.90;;;;;;5410425;26;20029;-63
2024/04/18 02:30:09;;;;;;;4.90;1.67;;;13.70;99.90;;;;;;5414979;26;19999;-63
2024/04/18 02:32:35;;;;;;;2.05;1.88;;;13.70;99.90;;;;;;5413491;26;20393;-63
2024/04/18 02:35:01;;;;;;;7.88;2.55;;;13.70;99.90;;;;;;5409945;26;20509;-63
2024/04/18 02:37:27;;;;;;;2.65;1.45;;;13.60;99.90;;;;;;5397275;26;19996;-63
2024/04/18 02:39:53;;;;;;;3.47;1.80;;;13.60;99.90;;;;;;5412880;26;20018;-63
2024/04/18 02:42:18;;;;;;;3.40;1.80;;;13.70;99.90;;;;;;5415365;26;20076;-63
2024/04/18 02:44:44;;;;;;;2.80;1.52;;;13.60;99.90;;;;;;5411676;26;20370;-63
2024/04/18 02:47:10;;;;;;;2.80;1.92;;;13.60;99.90;;;;;;5413145;26;20355;-63
2024/04/18 02:49:36;;;;;;;4.22;2.05;;;13.60;99.90;;;;;;5415325;26;20004;-63
2024/04/18 02:52:04;;;;;;;2.33;1.63;;;13.70;99.90;;;;;;5413708;26;20086;-63
2024/04/18 02:54:30;;;;;;;2.40;2.00;;;13.60;99.90;;;;;;5398283;26;20000;-63
2024/04/18 02:56:56;;;;;;;3.60;2.08;;;13.60;99.90;;;;;;5408340;26;20000;-63
2024/04/18 02:59:21;;;;;;;2.40;1.65;;;13.60;99.90;;;;;;5410849;26;20425;-63
2024/04/18 03:01:47;;;;;;;3.22;1.98;;;13.60;99.90;;;;;;5414848;26;19999;-63
2024/04/18 03:04:13;;;;;;;7.57;2.00;;;13.70;99.90;;;;;;5411851;26;20083;-63
2024/04/18 03:06:39;;;;;;;2.72;1.98;;;13.60;99.90;;;;;;5406978;26;20004;-63
2024/04/18 03:09:04;;;;;;;3.28;1.92;;;13.60;99.90;;;;;;5413284;26;20072;-63
2024/04/18 03:11:30;;;;;;;2.80;1.98;;;13.60;99.90;;;;;;5411825;26;20071;-63
2024/04/18 03:13:56;;;;;;;5.18;2.20;;;13.50;99.90;;;;;;5414460;26;20057;-63
2024/04/18 03:16:21;;;;;;;4.53;2.25;;;13.60;99.90;;;;;;5409010;26;20371;-62
2024/04/18 03:18:47;;;;;;;3.38;2.10;;;13.40;99.90;;;;;;5414736;26;20437;-63
2024/04/18 03:21:12;;;;;;;3.47;1.80;;;13.50;99.90;;;;;;5416246;26;20016;-63
2024/04/18 03:23:38;;;;;;;2.15;1.67;;;13.40;99.90;;;;;;5418029;26;20035;-63
2024/04/18 03:26:04;;;;;;;4.80;2.17;;;13.40;99.90;;;;;;5416241;26;20045;-63
2024/04/18 03:28:29;;;;;;;2.55;2.08;;;13.40;99.90;;;;;;5414744;26;19999;-63
2024/04/18 03:30:55;;;;;;;7.38;2.03;;;13.50;99.90;;;;;;5391027;26;20000;-63
2024/04/18 03:33:21;;;;;;;4.72;2.33;;;13.50;99.90;;;;;;5414201;26;20111;-62
2024/04/18 03:35:46;;;;;;;6.00;2.00;;;13.50;99.90;;;;;;5416505;26;20456;-62
2024/04/18 03:38:12;;;;;;;3.35;2.30;;;13.50;99.90;;;;;;5414654;26;20010;-63
2024/04/18 03:40:38;;;;;;;4.20;1.60;;;13.40;99.90;;;;;;5416390;26;20022;-63
2024/04/18 03:43:06;;;;;;;4.03;2.08;;;13.40;99.90;;;;;;5417911;26;20000;-62
2024/04/18 03:45:32;;;;;;;2.72;2.10;;;13.40;99.90;;;;;;5414281;26;20011;-62
2024/04/18 03:47:57;;;;;;;3.92;2.20;;;13.40;99.90;;;;;;5413319;26;20346;-63
2024/04/18 03:50:23;;;;;;;2.17;1.90;;;13.40;99.90;;;;;;5415059;26;20010;-63
2024/04/18 03:52:49;;;;;;;2.67;2.13;;;13.50;99.90;;;;;;5417875;26;19995;-63
2024/04/18 03:55:14;;;;;;;4.88;2.28;;;13.40;99.90;;;;;;5416042;26;20076;-63
2024/04/18 03:57:40;;;;;;;3.13;1.85;;;13.40;99.90;;;;;;5416162;26;20318;-63
2024/04/18 04:00:07;;;;;;;2.90;1.80;;;13.40;99.90;;;;;;5413549;26;19996;-63
2024/04/18 04:02:33;;;;;;;3.17;1.88;;;13.40;99.90;;;;;;5396999;26;20043;-63
2024/04/18 04:04:59;;;;;;;5.45;1.65;;;13.40;99.90;;;;;;5417435;26;20154;-63
2024/04/18 04:07:25;;;;;;;1.63;1.05;;;13.40;99.90;;;;;;5414087;26;20001;-63
2024/04/18 04:09:50;;;;;;;3.13;1.65;;;13.40;99.90;;;;;;5416101;26;20018;-63
2024/04/18 04:12:16;;;;;;;2.67;1.80;;;13.40;99.90;;;;;;5413866;26;19995;-63
2024/04/18 04:14:42;;;;;;;2.70;1.77;;;13.40;99.90;;;;;;5417733;26;20093;-62
2024/04/18 04:17:08;;;;;;;2.75;1.92;;;13.40;99.90;;;;;;5415415;26;20004;-62
2024/04/18 04:19:34;;;;;;;4.50;1.65;;;13.30;99.90;;;;;;5415026;26;20437;-62
2024/04/18 04:22:00;;;;;;;2.30;1.70;;;13.30;99.90;;;;;;5415474;26;20067;-63
2024/04/18 04:24:25;;;;;;;3.00;1.65;;;13.30;99.90;;;;;;5415170;26;20004;-63
2024/04/18 04:26:51;;;;;;;4.80;2.17;;;13.20;99.90;;;;;;5417481;26;20068;-62
2024/04/18 04:29:18;;;;;;;2.88;1.83;;;13.20;99.90;;;;;;5416028;26;19996;-63
2024/04/18 04:31:43;;;;;;;2.70;1.73;;;13.10;99.90;;;;;;5415193;26;20015;-63
2024/04/18 04:34:10;;;;;;;2.85;2.33;;;13.10;99.90;;;;;;5413233;26;20032;-62
2024/04/18 04:36:36;;;;;;;4.78;2.17;;;13.20;99.90;;;;;;5416925;26;20007;-63
2024/04/18 04:39:01;;;;;;;4.00;2.25;;;13.20;99.90;;;;;;5413617;26;20074;-63
2024/04/18 04:41:27;;;;;;;2.67;2.10;;;13.20;99.90;;;;;;5414328;26;20003;-63
2024/04/18 04:43:53;;;;;;;3.28;2.28;;;13.30;99.90;;;;;;5405955;26;20012;-63
2024/04/18 04:46:18;;;;;;;4.15;2.22;;;13.20;99.90;;;;;;5416723;26;20010;-63
2024/04/18 04:48:44;;;;;;;5.13;2.38;;;13.30;99.90;;;;;;5415430;26;20000;-63
2024/04/18 04:51:10;;;;;;;5.30;2.15;;;13.30;99.90;;;;;;5402361;26;20391;-63
2024/04/18 04:53:35;;;;;;;3.42;2.10;;;13.40;99.90;;;;;;5403993;26;20018;-62
2024/04/18 04:56:01;;;;;;;4.18;2.42;;;13.30;99.90;;;;;;5402273;26;20633;-63
2024/04/18 04:58:27;;;;;;;4.50;2.35;;;13.40;99.90;;;;;;5407845;26;20003;-63
2024/04/18 05:00:53;;;;;;;2.63;2.03;;;13.30;99.90;;;;;;5415084;26;20019;-63
2024/04/18 05:03:20;;;;;;;10.05;2.75;;;13.30;99.90;;;;;;5410852;26;20024;-63
2024/04/18 05:05:45;;;;;;;6.20;2.65;;;13.40;99.90;;;;;;5413279;26;20384;-63
2024/04/18 05:08:11;;;;;;;3.47;2.42;;;13.40;99.90;;;;;;5411219;26;19999;-63
2024/04/18 05:10:44;;;;;;;3.63;2.25;;;13.40;99.90;;;;;;5398208;26;20536;-63
2024/04/18 05:13:12;;;;;;;4.10;2.75;;;13.40;99.90;;;;;;5383647;26;20000;-63
2024/04/18 05:15:38;;;;;;;4.20;2.20;;;13.40;99.90;;;;;;5415697;26;19995;-63
2024/04/18 05:18:04;;;;;;;8.68;2.50;;;13.40;99.90;;;;;;5410738;26;20023;-63
2024/04/18 05:20:30;;;;;;;5.82;2.83;;;13.30;99.90;;;;;;5380670;26;20077;-63
2024/04/18 05:22:55;;;;;;;7.38;3.08;;;13.40;99.90;;;;;;5391493;26;20392;-63
2024/04/18 05:25:22;;;;;;;4.50;2.33;;;13.50;99.90;;;;;;5392657;26;20000;-62
2024/04/18 05:28:02;;;;;;;6.03;3.00;;;13.40;99.90;;;;;;5395789;26;20203;-63
2024/04/18 05:31:01;;;;;;;4.50;2.70;;;13.40;99.90;;;;;;5415089;26;19996;-64
2024/04/18 05:33:20;;;;;;;6.10;2.28;;;13.50;99.90;;;;;;5405927;26;20039;-63
2024/04/18 05:35:46;;;;;;;3.45;2.70;;;13.50;99.90;;;;;;5397120;26;20081;-64
2024/04/18 05:38:11;;;;;;;10.52;2.90;;;13.50;99.90;;;;;;5387251;26;19995;-64
2024/04/18 05:40:37;;;;;;;4.13;2.88;;;13.50;99.90;;;;;;5400130;26;20004;-63
2024/04/18 05:43:02;;;;;;;5.88;2.90;;;13.60;99.90;;;;;;5415898;26;20058;-63
2024/04/18 05:45:28;;;;;;;6.80;2.60;;;13.60;99.90;;;;;;5412357;26;20007;-64
2024/04/18 05:47:54;;;;;;;8.20;3.67;;;13.60;99.90;;;;;;5413989;26;20104;-64
2024/04/18 05:50:19;;;;;;;4.88;2.67;;;13.70;99.90;;;;;;5415393;26;20008;-63
2024/04/18 05:52:45;;;;;;;5.88;2.80;;;13.70;99.90;;;;;;5414738;26;20011;-63
2024/04/18 05:55:10;;;;;;;5.60;2.58;;;13.70;99.90;;;;;;5414670;26;20342;-63
2024/04/18 05:57:36;;;;;;;6.93;2.60;;;13.80;99.90;;;;;;5411971;26;20038;-63
2024/04/18 06:00:02;;;;;;;4.93;2.60;;;13.80;99.90;;;;;;5415956;26;20007;-63
2024/04/18 06:02:28;;;;;;;2.58;2.08;;;13.80;99.90;;;;;;5412376;26;20004;-63
2024/04/18 06:04:53;;;;;;;5.72;2.40;;;13.90;99.90;;;;;;5410127;26;20079;-64
2024/04/18 06:07:19;;;;;;;4.82;2.25;;;13.90;99.90;;;;;;5387722;26;20091;-63
2024/04/18 06:09:44;;;;;;;4.03;1.92;;;13.80;99.90;;;;;;5408688;26;20330;-63
2024/04/18 06:12:10;;;;;;;2.97;2.30;;;13.70;99.90;;;;;;5414836;26;20011;-63
2024/04/18 06:14:35;;;;;;;4.70;1.95;;;13.80;99.90;;;;;;5410766;26;20018;-64
2024/04/18 06:17:01;;;;;;;4.85;1.75;;;13.80;99.90;;;;;;5406045;26;20326;-63
2024/04/18 06:19:27;;;;;;;6.05;1.92;;;14.00;99.90;;;;;;5406224;26;20068;-63
2024/04/18 06:21:52;;;;;;;4.18;1.80;;;14.00;99.90;;;;;;5411820;26;20023;-63
2024/04/18 06:24:18;;;;;;;4.75;1.95;;;13.90;99.90;;;;;;5406662;26;20000;-63
2024/04/18 06:26:43;;;;;;;3.58;2.00;;;14.00;99.90;;;;;;5403096;26;20014;-60
2024/04/18 06:29:10;;;;;;;2.80;1.90;;;14.00;99.90;;;;;;5413867;26;20000;-66
2024/04/18 06:31:35;;;;;;;3.55;1.95;;;13.90;99.90;;;;;;5399572;26;20011;-66
2024/04/18 06:34:01;;;;;;;3.30;2.22;;;14.00;99.90;;;;;;5405427;26;19995;-65
2024/04/18 06:36:27;;;;;;;2.22;1.63;;;14.20;99.90;;;;;;5407765;26;20456;-65
2024/04/18 06:38:52;;;;;;;3.67;1.88;;;14.10;99.90;;;;;;5415285;26;19999;-65
2024/04/18 06:41:18;;;;;;;4.10;2.17;;;14.20;99.90;;;;;;5413238;26;20014;-65
2024/04/18 06:43:43;;;;;;;3.15;1.83;;;14.10;99.90;;;;;;5396808;26;20037;-65
2024/04/18 06:46:10;;;;;;;3.65;1.98;;;14.00;99.90;;;;;;5412038;26;20015;-65
2024/04/18 06:48:36;;;;;;;7.38;3.63;;;14.10;99.90;;;;;;5408753;26;20019;-65
2024/04/18 06:51:01;;;;;;;7.82;4.47;;;14.20;99.90;;;;;;5407783;26;20003;-65
2024/04/18 06:53:27;;;;;;;7.10;3.72;;;14.20;99.90;;;;;;5407271;26;20007;-65
2024/04/18 06:55:52;;;;;;;15.05;6.82;;;14.20;99.90;;;;;;5414809;26;20022;-65
2024/04/18 06:58:18;;;;;;;10.80;5.47;;;14.20;99.90;;;;;;5411727;26;20000;-65
2024/04/18 07:00:44;;;;;;;10.68;5.13;;;14.30;99.90;;;;;;5390856;26;20023;-65
2024/04/18 07:03:12;;;;;;;5.93;3.17;;;14.30;99.90;;;;;;5410955;26;20008;-64
2024/04/18 07:05:38;;;;;;;6.93;2.78;;;14.30;99.90;;;;;;5395595;26;20481;-64
2024/04/18 07:08:13;;;;;;;3.67;2.38;;;14.20;99.90;;;;;;5399833;26;20037;-64
2024/04/18 07:10:39;;;;;;;6.10;2.40;;;14.40;99.90;;;;;;5390867;26;20120;-64
2024/04/18 07:13:05;;;;;;;4.60;2.60;;;14.40;99.90;;;;;;5408790;26;20329;-64
2024/04/18 07:15:31;;;;;;;3.20;2.20;;;14.40;99.90;;;;;;5408654;26;20328;-64
2024/04/18 07:17:57;;;;;;;4.38;1.65;;;14.50;99.90;;;;;;5411870;26;20067;-64
2024/04/18 07:20:22;;;;;;;4.95;2.30;;;14.50;99.90;;;;;;5412889;26;20430;-64
2024/04/18 07:22:48;;;;;;;4.25;2.58;;;14.70;99.90;;;;;;5403072;26;20074;-63
2024/04/18 07:25:14;;;;;;;6.47;4.60;;;14.70;99.90;;;;;;5414372;26;20015;-64
2024/04/18 07:27:39;;;;;;;7.95;3.70;;;14.50;99.90;;;;;;5414743;26;19999;-65
2024/04/18 07:30:06;;;;;;;3.03;1.80;;;14.70;99.90;;;;;;5412811;26;20053;-64
2024/04/18 07:32:31;;;;;;;4.32;1.95;;;14.60;99.90;;;;;;5410694;26;20010;-64
2024/04/18 07:34:57;;;;;;;3.63;1.98;;;14.80;99.90;;;;;;5414280;26;19996;-64
2024/04/18 07:37:23;;;;;;;2.97;1.73;;;14.80;99.90;;;;;;5409029;26;20445;-64
2024/04/18 07:39:49;;;;;;;3.28;1.67;;;14.80;99.90;;;;;;5414165;26;20014;-64
2024/04/18 07:42:16;;;;;;;3.85;1.77;;;14.90;99.90;;;;;;5413062;26;20024;-64
2024/04/18 07:44:42;;;;;;;6.05;1.50;;;14.90;99.90;;;;;;5410558;26;20341;-65
2024/04/18 07:47:07;;;;;;;6.43;1.80;;;14.80;99.90;;;;;;5403563;26;20083;-64
2024/04/18 07:49:33;;;;;;;3.13;1.38;;;15.00;99.90;;;;;;5410798;26;20106;-64
2024/04/18 07:52:02;;;;;;;5.28;1.75;;;15.10;99.90;;;;;;5414174;26;20345;-64
2024/04/18 07:54:27;;;;;;;5.70;1.70;;;15.10;99.90;;;;;;5412781;26;20050;-64
2024/04/18 07:56:53;;;;;;;2.80;1.45;;;15.20;99.90;;;;;;5414076;26;20123;-64
2024/04/18 07:59:18;;;;;;;3.17;1.50;;;15.00;99.90;;;;;;5399901;26;20000;-66
2024/04/18 08:01:44;;;;;;;2.95;1.70;;;15.00;99.90;;;;;;5406904;26;20000;-64
2024/04/18 08:04:10;;;;;;;10.02;3.38;;;15.10;99.90;;;;;;5414638;26;19999;-65
2024/04/18 08:06:36;;;;;;;6.75;1.90;;;15.20;99.90;;;;;;5415891;26;20011;-64
2024/04/18 08:09:04;;;;;;;6.80;1.95;;;15.20;99.90;;;;;;5413543;26;20064;-64
2024/04/18 08:11:30;;;;;;;4.82;1.80;;;15.30;99.90;;;;;;5382615;26;20004;-64
2024/04/18 08:13:56;;;;;;;2.92;1.88;;;15.40;99.90;;;;;;5396755;26;20033;-64
2024/04/18 08:16:22;;;;;;;4.72;2.03;;;15.50;99.90;;;;;;5417484;26;20430;-64
2024/04/18 08:18:47;;;;;;;4.93;2.03;;;15.50;99.90;;;;;;5414409;26;19996;-64
2024/04/18 08:21:13;;;;;;;5.43;1.77;;;15.50;99.90;;;;;;5413414;26;20015;-64
2024/04/18 08:23:39;;;;;;;2.78;1.60;;;15.60;99.90;;;;;;5408057;26;19999;-64
2024/04/18 08:26:05;;;;;;;4.28;1.98;;;15.60;99.90;;;;;;5417551;26;20190;-63
2024/04/18 08:28:30;;;;;;;2.92;1.55;;;15.70;99.90;;;;;;5412883;26;20463;-64
2024/04/18 08:30:56;;;;;;;2.80;1.60;;;15.70;99.90;;;;;;5403401;26;19996;-64
2024/04/18 08:33:22;;;;;;;1.98;1.42;;;15.80;99.90;;;;;;5412902;26;20008;-64
2024/04/18 08:35:48;;;;;;;4.22;1.73;;;15.70;99.90;;;;;;5417205;26;20418;-64
2024/04/18 08:38:14;;;;;;;2.67;1.63;;;15.90;99.90;;;;;;5410704;26;20007;-63
2024/04/18 08:40:44;;;;;;;3.63;1.50;;;15.90;99.90;;;;;;5403117;26;20000;-64
2024/04/18 08:43:11;;;;;;;6.10;1.50;;;16.00;99.90;;;;;;5388977;26;19999;-64
2024/04/18 08:45:38;;;;;;;3.53;1.20;;;16.10;99.90;;;;;;5415011;26;20449;-64
2024/04/18 08:48:05;;;;;;;6.60;1.00;;;16.10;99.90;;;;;;5413542;26;20112;-64
2024/04/18 08:50:32;;;;;;;3.28;1.40;;;16.00;99.90;;;;;;5414861;26;19999;-64
2024/04/18 08:52:58;;;;;;;3.65;1.33;;;16.00;99.90;;;;;;5412927;26;20008;-64
2024/04/18 08:55:24;;;;;;;4.45;1.30;;;16.00;99.90;;;;;;5413326;26;20053;-64
2024/04/18 08:58:01;;;;;;;1.90;1.40;;;16.10;99.90;;;;;;5413715;26;20003;-64
2024/04/18 09:00:27;;;;;;;1.45;1.08;;;16.20;99.90;;;;;;5415100;26;20003;-65
2024/04/18 09:02:53;;;;;;;4.93;1.15;;;16.20;99.90;;;;;;5416647;26;20039;-65
2024/04/18 09:05:19;;;;;;;3.25;1.40;;;16.30;99.90;;;;;;5413611;26;20011;-65
2024/04/18 09:07:44;;;;;;;5.55;1.52;;;16.40;99.90;;;;;;5411952;26;20330;-64
2024/04/18 09:10:10;;;;;;;3.45;1.60;;;16.30;99.90;;;;;;5402460;26;20000;-65
2024/04/18 09:12:36;;;;;;;1.58;1.33;;;16.30;99.90;;;;;;5406559;26;20491;-65
2024/04/18 09:15:03;;;;;;;2.08;1.10;;;16.30;99.90;;;;;;5412266;26;20014;-64
2024/04/18 09:31:28;;;;;;;2.65;1.60;;;16.60;99.90;;;;;;5371439;26;20090;-64
2024/04/18 09:33:54;;;;;;;3.53;0.98;;;16.60;99.90;;;;;;5409383;26;20541;-64
2024/04/18 09:36:20;;;;;;;1.98;0.90;;;16.50;99.90;;;;;;5413813;26;19999;-64
2024/04/18 09:38:47;;;;;;;1.83;1.10;;;16.60;99.90;;;;;;5411552;26;20028;-65
2024/04/18 09:41:20;;;;;;;4.32;1.00;;;16.70;99.90;;;;;;5416374;26;20071;-65
2024/04/18 09:43:46;;;;;;;4.18;1.27;;;16.70;99.90;;;;;;5396890;26;20011;-65
2024/04/18 09:46:14;;;;;;;1.33;1.00;;;16.60;99.90;;;;;;5405456;26;20000;-65
2024/04/18 09:48:41;;;;;;;1.88;1.20;;;16.70;99.90;;;;;;5406399;26;20003;-64
2024/04/18 09:51:08;;;;;;;3.08;1.10;;;16.60;99.90;;;;;;5415921;26;20014;-65
2024/04/18 09:53:35;;;;;;;2.90;1.05;;;16.70;99.90;;;;;;5405747;26;19997;-64
2024/04/18 09:56:01;;;;;;;2.83;1.40;;;16.60;99.90;;;;;;5398941;26;20011;-64
2024/04/18 09:58:27;;;;;;;2.38;1.23;;;16.50;99.90;;;;;;5409021;26;20004;-64
2024/04/18 10:00:54;;;;;;;3.92;1.30;;;16.50;99.90;;;;;;5415970;26;20003;-64
2024/04/18 10:03:20;;;;;;;1.10;1.00;;;16.50;99.90;;;;;;5414023;26;20014;-64
2024/04/18 10:05:50;;;;;;;1.00;0.80;;;16.60;99.90;;;;;;5413026;26;20004;-64
2024/04/18 10:08:18;;;;;;;2.17;1.00;;;16.70;99.90;;;;;;5398015;26;20007;-64
2024/04/18 10:10:45;;;;;;;1.02;0.80;;;16.70;99.90;;;;;;5415868;26;20041;-64
2024/04/18 10:13:11;;;;;;;3.22;0.70;;;16.80;99.90;;;;;;5408446;26;19999;-64
2024/04/18 10:15:37;;;;;;;1.75;0.80;;;16.50;99.90;;;;;;5411259;26;20014;-64
2024/04/18 10:18:16;;;;;;;0.75;0.70;;;16.60;99.90;;;;;;5411416;26;20000;-64
2024/04/18 10:20:43;;;;;;;3.20;0.90;;;16.80;99.90;;;;;;5407006;26;20019;-64
2024/04/18 10:23:15;;;;;;;6.03;1.25;;;16.80;99.90;;;;;;5414286;26;20072;-64
2024/04/18 10:25:43;;;;;;;1.30;0.90;;;16.90;99.90;;;;;;5415552;26;20000;-64
2024/04/18 10:28:25;;;;;;;1.08;0.93;;;17.00;99.90;;;;;;5405704;26;20006;-64
2024/04/18 10:30:50;;;;;;;1.85;1.00;;;17.00;99.90;;;;;;5415323;26;20014;-64
2024/04/18 10:33:16;;;;;;;1.25;0.60;;;16.60;99.90;;;;;;5409764;26;19995;-64
2024/04/18 10:35:42;;;;;;;1.98;0.95;;;16.90;99.90;;;;;;5415347;26;20000;-64
2024/04/18 10:38:08;;;;;;;1.50;1.17;;;17.00;99.90;;;;;;5412823;26;20080;-64
2024/04/18 10:40:33;;;;;;;1.25;0.80;;;17.00;99.90;;;;;;5414909;26;20003;-63
2024/04/18 10:43:13;;;;;;;3.90;1.50;;;17.10;99.90;;;;;;5410139;26;20015;-64
2024/04/18 10:45:40;;;;;;;1.77;0.98;;;17.20;99.90;;;;;;5389002;26;20115;-63
2024/04/18 10:48:06;;;;;;;1.95;1.20;;;17.20;99.90;;;;;;5406519;26;20014;-64
2024/04/18 10:50:33;;;;;;;1.42;0.90;;;17.40;99.90;;;;;;5407661;26;20031;-64
2024/04/18 10:53:05;;;;;;;1.92;0.82;;;;;;;;;;5411045;26;19999;-63
2024/04/18 10:55:33;;;;;;;2.28;1.05;;;;;;;;;;5415176;26;20000;-63
2024/04/18 10:57:59;;;;;;;4.15;1.10;;;;;;;;;;5413130;26;19995;-64
2024/04/18 11:00:27;;;;;;;2.25;0.85;;;;;;;;;;5409013;26;20014;-64
2024/04/18 11:02:56;;;;;;;1.38;1.05;;;;;;;;;;5411856;26;20000;-65
2024/04/18 11:05:22;;;;;;;5.43;1.67;;;;;;;;;;5414969;26;19999;-65
2024/04/18 11:07:53;;;;;;;4.97;0.93;;;;;;;;;;5404421;26;20000;-65
2024/04/18 11:10:19;;;;;;;3.03;1.48;;;;;;;;;;5404820;26;19999;-64
2024/04/18 11:12:45;;;;;;;2.28;1.27;;;;;;;;;;5400635;26;20084;-64
2024/04/18 11:15:11;;;;;;;3.72;1.45;;;;;;;;;;5398691;26;20073;-64
2024/04/18 11:17:37;;;;;;;2.45;1.08;;;;;;;;;;5408708;26;19996;-65
2024/04/18 11:20:03;;;;;;;2.60;1.48;;;17.30;99.90;;;;;;5412053;26;20003;-64
2024/04/18 11:22:29;;;;;;;2.80;1.45;;;18.00;99.90;;;;;;5410622;26;19999;-64
2024/04/18 11:25:06;;;;;;;0.93;0.93;;;18.00;99.90;;;;;;5410504;26;20003;-64
2024/04/18 11:27:37;;;;;;;2.80;1.10;;;18.10;99.90;;;;;;5388938;26;19999;-63
2024/04/18 11:30:07;;;;;;;1.23;0.80;;;18.20;99.90;;;;;;5400330;26;20011;-64
2024/04/18 11:32:33;;;;;;;1.50;1.17;;;18.30;99.90;;;;;;5402757;26;20010;-64
2024/04/18 11:35:30;;;;;;;1.67;0.88;;;18.30;99.90;;;;;;5404778;26;19996;-64
2024/04/18 11:38:30;;;;;;;2.30;0.75;;;18.60;99.90;;;;;;5404119;26;20001;-64
2024/04/18 11:41:04;;;;;;;3.50;0.90;;;18.80;99.90;;;;;;5394089;26;20040;-64
2024/04/18 11:43:30;;;;;;;3.65;0.90;;;;;;;;;;5415222;26;20046;-64
2024/04/18 11:45:56;;;;;;;2.22;0.90;;;;;;;;;;5417349;26;20000;-64
2024/04/18 11:48:22;;;;;;;1.73;1.00;;;;;;;;;;5413275;26;20003;-64
2024/04/18 11:50:48;;;;;;;1.45;0.82;;;;;;;;;;5418207;26;20018;-64
2024/04/18 11:53:14;;;;;;;2.65;1.10;;;;;;;;;;5409132;26;19996;-64
2024/04/18 11:55:40;;;;;;;2.92;0.60;;;;;;;;;;5416890;26;20000;-64
2024/04/18 11:58:06;;;;;;;1.40;0.90;;;;;;;;;;5409995;26;20049;-64
2024/04/18 12:00:33;;;;;;;1.20;0.70;;;;;;;;;;5407957;26;20003;-64
2024/04/18 12:02:59;;;;;;;1.00;0.90;;;;;;;;;;5414436;26;20000;-64
2024/04/18 12:05:25;;;;;;;1.90;1.00;;;18.90;99.90;;;;;;5415682;26;20337;-64
2024/04/18 12:07:51;;;;;;;3.30;1.80;;;;;;;;;;5411428;26;20000;-64
2024/04/18 12:10:17;;;;;;;2.47;0.73;;;28.40;99.90;;;;;;5416069;26;20017;-64
2024/04/18 12:12:43;;;;;;;3.08;0.63;;;26.30;99.90;;;;;;5416152;26;20003;-65
2024/04/18 12:15:09;;;;;;;1.27;0.75;;;27.10;99.90;;;;;;5415825;26;20039;-65
2024/04/18 12:21:06;;;;;;;1.05;0.63;;;;;;;;;;5395321;26;20072;-65
2024/04/18 12:23:32;;;;;;;0.63;0.50;;;25.60;99.90;;;;;;5389488;26;20015;-65
2024/04/18 12:25:58;;;;;;;2.13;0.80;;;21.70;99.90;;;;;;5415547;26;19996;-64
2024/04/18 12:38:26;;;;;;;1.33;0.60;;;;;;;;;;5363088;26;20003;-64
2024/04/18 12:40:52;;;;;;;2.78;0.50;;;17.90;99.90;;;;;;5414293;26;19996;-64
2024/04/18 12:43:17;;;;;;;2.65;0.73;;;17.30;99.90;;;;;;5414360;26;20009;-64
2024/04/18 12:45:43;;;;;;;0.40;0.40;;;16.90;99.90;;;;;;5415445;26;20003;-64
2024/04/18 12:48:09;;;;;;;4.65;0.80;;;16.90;99.90;;;;;;5409759;26;20011;-68
2024/04/18 12:50:35;;;;;;;4.80;0.70;;;16.70;99.90;;;;;;5416898;26;20006;-61
2024/04/18 12:53:00;;;;;;;1.33;0.47;;;16.70;99.90;;;;;;5412157;26;20004;-62
2024/04/18 12:55:27;;;;;;;3.75;0.75;;;16.40;99.90;;;;;;5408245;26;20011;-61
2024/04/18 12:57:53;;;;;;;0.68;0.35;;;16.50;99.90;;;;;;5397898;26;20082;-60
2024/04/18 13:00:19;;;;;;;0.77;0.40;;;16.30;99.90;;;;;;5415752;26;20022;-61
2024/04/18 13:02:45;;;;;;;4.00;0.70;;;16.10;99.90;;;;;;5416937;26;19995;-61
2024/04/18 13:05:11;;;;;;;2.35;0.50;;;16.20;99.90;;;;;;5384440;26;20084;-61
2024/04/18 13:07:37;;;;;;;6.88;0.63;;;16.10;99.90;;;;;;5385675;26;20000;-60
2024/04/18 13:10:05;;;;;;;1.13;0.32;;;16.10;99.90;;;;;;5391785;26;20000;-61
2024/04/18 13:12:31;;;;;;;7.57;0.57;;;16.30;99.90;;;;;;5411076;26;20511;-61
2024/04/18 13:14:57;;;;;;;2.38;0.20;;;15.80;99.90;;;;;;5415029;26;20053;-61
2024/04/18 13:17:22;;;;;;;1.15;0.20;;;15.70;99.90;;;;;;5412578;26;20473;-61